createdAt,value
2023-04-12T00:01:41.466Z,97883.56
2023-04-12T00:04:10.202Z,97927.34
2023-04-12T00:06:38.298Z,97988.34
2023-04-12T00:09:08.597Z,98100.72
2023-04-12T00:11:36.510Z,98153.00
2023-04-12T00:14:04.338Z,98231.31
2023-04-12T00:16:32.541Z,98312.59
2023-04-12T00:19:01.827Z,98438.22
2023-04-12T00:21:29.879Z,98582.88
2023-04-12T00:23:57.877Z,98665.69
2023-04-12T00:26:27.307Z,98751.63
2023-04-12T00:28:55.097Z,98779.22
2023-04-12T00:31:23.017Z,98788.56
2023-04-12T00:33:50.888Z,98842.16
2023-04-12T00:36:18.807Z,98879.25
2023-04-12T00:38:46.785Z,98901.81
2023-04-12T00:41:15.358Z,98939.75
2023-04-12T00:43:44.684Z,98950.78
2023-04-12T00:46:12.990Z,98923.44
2023-04-12T00:48:41.169Z,98901.81
2023-04-12T00:51:09.347Z,98840.19
2023-04-12T00:53:39.275Z,98840.75
2023-04-12T00:56:11.878Z,98784.75
2023-04-12T00:58:40.608Z,98739.19
2023-04-12T01:01:10.577Z,98674.47
2023-04-12T01:03:43.358Z,98595.38
2023-04-12T01:06:15.007Z,98499.81
2023-04-12T01:08:55.847Z,98406.19
2023-04-12T01:11:32.269Z,98322.94
2023-04-12T01:14:08.179Z,98254.19
2023-04-12T01:16:44.393Z,98269.88
2023-04-12T01:19:30.976Z,98252.41
2023-04-12T01:22:14.509Z,98258.38
2023-04-12T01:24:52.945Z,98310.03
2023-04-12T01:27:35.705Z,98309.19
2023-04-12T01:30:07.463Z,98238.78
2023-04-12T01:32:37.788Z,98196.69
2023-04-12T01:35:09.170Z,98172.81
2023-04-12T01:37:37.869Z,98191.69
2023-04-12T01:40:09.144Z,98151.47
2023-04-12T01:42:38.356Z,98150.63
2023-04-12T01:45:07.641Z,98160.06
2023-04-12T01:47:35.751Z,98155.88
2023-04-12T01:50:13.113Z,98093.16
2023-04-12T01:52:46.797Z,98078.47
2023-04-12T01:55:16.154Z,98063.19
2023-04-12T01:57:48.428Z,98097.59
2023-04-12T02:00:18.058Z,98104.25
2023-04-12T02:02:46.070Z,98085.41
2023-04-12T02:05:14.157Z,98073.47
2023-04-12T02:07:43.035Z,98069.16
2023-04-12T02:10:14.634Z,98066.66
2023-04-12T02:12:42.417Z,98019.38
2023-04-12T02:15:12.826Z,97969.59
2023-04-12T02:17:41.021Z,97943.97
2023-04-12T02:20:11.963Z,97894.19
2023-04-12T02:22:39.865Z,97835.19
2023-04-12T02:25:08.161Z,97797.63
2023-04-12T02:27:35.958Z,97749.44
2023-04-12T02:30:04.620Z,97705.84
2023-04-12T02:32:45.089Z,97650.06
2023-04-12T02:35:14.215Z,97649.66
2023-04-12T02:37:44.126Z,97602.50
2023-04-12T02:40:14.384Z,97581.16
2023-04-12T02:42:42.504Z,97562.09
2023-04-12T02:45:11.525Z,97516.06
2023-04-12T02:47:41.712Z,97473.47
2023-04-12T02:50:10.037Z,97439.34
2023-04-12T02:52:38.171Z,97386.28
2023-04-12T02:55:07.010Z,97367.63
2023-04-12T02:57:35.269Z,97368.59
2023-04-12T03:00:08.296Z,97387.13
2023-04-12T03:02:36.925Z,97363.19
2023-04-12T03:05:07.691Z,97334.88
2023-04-12T03:07:36.167Z,97311.97
2023-04-12T03:10:05.225Z,97287.97
2023-04-12T03:12:33.065Z,97283.97
2023-04-12T03:15:01.191Z,97301.06
2023-04-12T03:17:29.083Z,97351.06
2023-04-12T03:19:58.179Z,97527.25
2023-04-12T03:22:27.418Z,97653.25
2023-04-12T03:24:55.322Z,97696.69
2023-04-12T03:27:23.177Z,97777.41
2023-04-12T03:29:52.323Z,97820.31
2023-04-12T03:32:20.777Z,97881.16
2023-04-12T03:34:48.760Z,97886.13
2023-04-12T03:37:16.666Z,97904.28
2023-04-12T03:39:48.138Z,97923.13
2023-04-12T03:42:29.943Z,97945.34
2023-04-12T03:44:59.970Z,97966.25
2023-04-12T03:47:28.089Z,97955.03
2023-04-12T03:50:09.559Z,97948.34
2023-04-12T03:52:39.596Z,97944.88
2023-04-12T03:55:12.003Z,97940.56
2023-04-12T03:57:40.040Z,97990.22
2023-04-12T04:00:09.893Z,98006.56
2023-04-12T04:02:38.677Z,98015.31
2023-04-12T04:05:07.254Z,98045.13
2023-04-12T04:07:36.781Z,98046.78
2023-04-12T04:10:05.752Z,98050.25
2023-04-12T04:12:35.124Z,98049.41
2023-04-12T04:15:02.987Z,98064.97
2023-04-12T04:17:30.808Z,98099.50
2023-04-12T04:19:58.654Z,98110.59
2023-04-12T04:22:26.548Z,98115.72
2023-04-12T04:24:55.884Z,98124.31
2023-04-12T04:27:23.888Z,98132.09
2023-04-12T04:29:58.257Z,98145.69
2023-04-12T04:32:26.908Z,98146.66
2023-04-12T04:34:57.369Z,98151.94
2023-04-12T04:37:25.807Z,98157.91
2023-04-12T04:39:53.614Z,98152.75
2023-04-12T04:42:21.563Z,98156.22
2023-04-12T04:44:51.205Z,98158.28
2023-04-12T04:47:22.334Z,98168.28
2023-04-12T04:49:50.896Z,98191.59
2023-04-12T04:52:19.718Z,98206.22
2023-04-12T04:54:47.790Z,98223.28
2023-04-12T04:57:15.819Z,98241.31
2023-04-12T04:59:43.664Z,98249.94
2023-04-12T05:02:12.133Z,98277.28
2023-04-12T05:04:41.554Z,98301.56
2023-04-12T05:07:09.538Z,98316.19
2023-04-12T05:09:37.580Z,98328.25
2023-04-12T05:12:05.968Z,98339.38
2023-04-12T05:14:46.635Z,98374.78
2023-04-12T05:17:16.048Z,98424.69
2023-04-12T05:19:45.432Z,98448.59
2023-04-12T05:22:14.650Z,98463.00
2023-04-12T05:24:42.632Z,98513.34
2023-04-12T05:27:10.651Z,98564.00
2023-04-12T05:29:38.501Z,98648.38
2023-04-12T05:32:06.542Z,98699.56
2023-04-12T05:34:34.397Z,98769.19
2023-04-12T05:37:06.613Z,98908.69
2023-04-12T05:39:34.970Z,99026.06
2023-04-12T05:42:02.778Z,99197.25
2023-04-12T05:44:30.563Z,99302.94
2023-04-12T05:46:58.426Z,99411.69
2023-04-12T05:49:30.066Z,99518.13
2023-04-12T05:51:58.393Z,99613.56
2023-04-12T05:54:27.856Z,99725.16
2023-04-12T05:56:57.205Z,99773.97
2023-04-12T05:59:25.043Z,99846.59
2023-04-12T06:01:52.903Z,99886.66
2023-04-12T06:04:20.955Z,99927.59
2023-04-12T06:06:49.862Z,99978.75
2023-04-12T06:09:17.802Z,99888.47
2023-04-12T06:11:46.912Z,99963.19
2023-04-12T06:14:14.857Z,100024.63
2023-04-12T06:16:42.909Z,100061.34
2023-04-12T06:19:13.686Z,100182.91
2023-04-12T06:21:41.771Z,100236.09
2023-04-12T06:24:09.826Z,100218.81
2023-04-12T06:26:40.009Z,100260.63
2023-04-12T06:29:10.097Z,100382.34
2023-04-12T06:31:38.534Z,100454.63
2023-04-12T06:34:06.647Z,100508.59
2023-04-12T06:36:34.964Z,100622.72
2023-04-12T06:39:03.927Z,100745.63
2023-04-12T06:41:32.056Z,100780.56
2023-04-12T06:43:59.858Z,100729.88
2023-04-12T06:46:30.045Z,100778.88
2023-04-12T06:48:58.143Z,101007.53
2023-04-12T06:51:26.212Z,101125.47
2023-04-12T06:53:54.124Z,101219.16
2023-04-12T06:56:22.287Z,101386.50
2023-04-12T06:58:50.414Z,101393.34
2023-04-12T07:01:19.281Z,101468.00
2023-04-12T07:03:48.677Z,101551.13
2023-04-12T07:06:25.055Z,101591.41
2023-04-12T07:08:54.712Z,101576.47
2023-04-12T07:11:24.003Z,101628.34
2023-04-12T07:13:52.378Z,101473.34
2023-04-12T07:16:20.500Z,101350.69
2023-04-12T07:18:50.354Z,101452.19
2023-04-12T07:21:18.606Z,101652.94
2023-04-12T07:23:47.576Z,101733.63
2023-04-12T07:26:15.570Z,101653.91
2023-04-12T07:28:43.381Z,101833.63
2023-04-12T07:31:11.406Z,101889.97
2023-04-12T07:33:40.686Z,101913.53
2023-04-12T07:36:12.762Z,101886.31
2023-04-12T07:38:40.787Z,101925.84
2023-04-12T07:41:08.940Z,101975.16
2023-04-12T07:43:36.821Z,101966.53
2023-04-12T07:46:08.603Z,101988.34
2023-04-12T07:48:36.825Z,101926.03
2023-04-12T07:51:05.405Z,101945.34
2023-04-12T07:53:34.970Z,101797.94
2023-04-12T07:56:05.082Z,101827.72
2023-04-12T07:58:35.709Z,101884.81
2023-04-12T08:01:03.742Z,101969.09
2023-04-12T08:03:31.872Z,102054.34
2023-04-12T08:06:00.498Z,102123.78
2023-04-12T08:08:28.393Z,102368.28
2023-04-12T08:10:57.587Z,102506.66
2023-04-12T08:13:28.394Z,102573.69
2023-04-12T08:15:56.388Z,102646.00
2023-04-12T08:18:24.387Z,102610.75
2023-04-12T08:20:52.225Z,102394.88
2023-04-12T08:23:20.156Z,102546.41
2023-04-12T08:25:48.013Z,102681.28
2023-04-12T08:28:17.385Z,102707.75
2023-04-12T08:30:45.279Z,102934.41
2023-04-12T08:33:13.125Z,103154.81
2023-04-12T08:35:41.169Z,103398.78
2023-04-12T08:38:09.246Z,103590.06
2023-04-12T08:40:38.182Z,103681.41
2023-04-12T08:43:08.781Z,103726.72
2023-04-12T08:45:39.194Z,103553.72
2023-04-12T08:48:07.354Z,103433.22
2023-04-12T08:50:35.552Z,103630.03
2023-04-12T08:53:04.452Z,103600.84
2023-04-12T08:55:32.412Z,103722.31
2023-04-12T08:58:00.958Z,103597.19
2023-04-12T09:00:40.554Z,104085.38
2023-04-12T09:03:10.599Z,104224.16
2023-04-12T09:05:38.645Z,104029.47
2023-04-12T09:08:06.956Z,103909.63
2023-04-12T09:10:37.088Z,103832.41
2023-04-12T09:13:06.031Z,104115.56
2023-04-12T09:15:35.900Z,104571.31
2023-04-12T09:18:08.220Z,104712.06
2023-04-12T09:20:37.010Z,104737.06
2023-04-12T09:23:19.289Z,104829.91
2023-04-12T09:25:48.553Z,104912.94
2023-04-12T09:28:21.506Z,105154.91
2023-04-12T09:30:51.814Z,105164.78
2023-04-12T09:33:23.308Z,105033.47
2023-04-12T09:35:51.557Z,104937.00
2023-04-12T09:38:19.855Z,105040.53
2023-04-12T09:40:48.672Z,105311.41
2023-04-12T09:43:16.671Z,105729.59
2023-04-12T09:45:47.373Z,105589.78
2023-04-12T09:48:22.043Z,105594.19
2023-04-12T09:50:50.055Z,105725.06
2023-04-12T09:53:19.334Z,105819.31
2023-04-12T09:55:49.903Z,105517.28
2023-04-12T09:58:20.521Z,105613.97
2023-04-12T10:00:48.936Z,105806.66
2023-04-12T10:03:17.253Z,105707.88
2023-04-12T10:05:46.908Z,106343.66
2023-04-12T10:08:15.633Z,105731.28
2023-04-12T10:10:45.845Z,105921.50
2023-04-12T10:13:18.455Z,106135.09
2023-04-12T10:15:51.148Z,106394.13
2023-04-12T10:18:19.720Z,106457.06
2023-04-12T10:20:48.966Z,106793.78
2023-04-12T10:23:17.844Z,106654.13
2023-04-12T10:25:48.041Z,107207.16
2023-04-12T10:28:17.477Z,107023.91
2023-04-12T10:30:48.201Z,106545.09
2023-04-12T10:33:18.000Z,105916.81
2023-04-12T10:36:00.736Z,105262.78
2023-04-12T10:38:34.554Z,105532.78
2023-04-12T10:41:25.158Z,105780.19
2023-04-12T10:43:53.797Z,105773.06
2023-04-12T10:46:58.546Z,106262.25
2023-04-12T10:49:26.799Z,105870.63
2023-04-12T10:52:18.607Z,106191.25
2023-04-12T10:54:47.089Z,106122.06
2023-04-12T10:57:45.412Z,106069.00
2023-04-12T11:00:14.439Z,105893.03
2023-04-12T11:03:09.872Z,105832.91
2023-04-12T11:06:12.651Z,105473.53
2023-04-12T11:08:51.064Z,104896.78
2023-04-12T11:11:22.649Z,104337.03
2023-04-12T11:13:56.263Z,104043.97
2023-04-12T11:16:24.328Z,103905.78
2023-04-12T11:18:55.448Z,103943.13
2023-04-12T11:21:24.135Z,103858.69
2023-04-12T11:23:56.483Z,103553.69
2023-04-12T11:26:25.409Z,103643.03
2023-04-12T11:28:55.964Z,103622.63
2023-04-12T11:31:24.516Z,103893.09
2023-04-12T11:33:52.410Z,104149.81
2023-04-12T11:36:20.402Z,104106.25
2023-04-12T11:38:50.263Z,103854.91
2023-04-12T11:41:19.831Z,103948.88
2023-04-12T11:43:49.526Z,103984.38
2023-04-12T11:46:18.441Z,104372.91
2023-04-12T11:48:47.459Z,105089.91
2023-04-12T11:51:22.387Z,105450.28
2023-04-12T11:53:54.490Z,105877.91
2023-04-12T11:56:24.211Z,106308.25
2023-04-12T11:58:52.845Z,106582.69
2023-04-12T12:01:21.959Z,106859.41
2023-04-12T12:03:51.130Z,106997.50
2023-04-12T12:06:19.960Z,106457.03
2023-04-12T12:08:49.800Z,106390.03
2023-04-12T12:11:17.717Z,106020.59
2023-04-12T12:13:48.569Z,106428.59
2023-04-12T12:16:17.700Z,106379.13
2023-04-12T12:18:46.811Z,106471.78
2023-04-12T12:21:16.021Z,106963.72
2023-04-12T12:23:46.278Z,106568.13
2023-04-12T12:26:21.857Z,106803.19
2023-04-12T12:28:56.348Z,106703.22
2023-04-12T12:31:28.059Z,106764.41
2023-04-12T12:33:57.851Z,106967.28
2023-04-12T12:36:32.912Z,106754.44
2023-04-12T12:39:07.472Z,107091.84
2023-04-12T12:41:35.591Z,107293.38
2023-04-12T12:44:04.902Z,107159.56
2023-04-12T12:46:50.710Z,106956.38
2023-04-12T12:49:20.397Z,106948.19
2023-04-12T12:51:48.490Z,107098.94
2023-04-12T12:54:32.299Z,107000.50
2023-04-12T12:57:06.614Z,107236.22
2023-04-12T12:59:35.993Z,106834.41
2023-04-12T13:02:04.017Z,106947.16
2023-04-12T13:04:32.738Z,106934.44
2023-04-12T13:07:00.677Z,107161.94
2023-04-12T13:09:28.613Z,107294.75
2023-04-12T13:11:57.326Z,106820.78
2023-04-12T13:14:25.240Z,107051.63
2023-04-12T13:16:54.598Z,107347.06
2023-04-12T13:19:24.334Z,107304.50
2023-04-12T13:21:53.302Z,107139.19
2023-04-12T13:24:21.407Z,107128.25
2023-04-12T13:26:49.550Z,106847.56
2023-04-12T13:29:17.495Z,107036.94
2023-04-12T13:31:45.427Z,106784.34
2023-04-12T13:34:14.769Z,106313.28
2023-04-12T13:36:44.768Z,106631.06
2023-04-12T13:39:12.861Z,106968.13
2023-04-12T13:41:41.018Z,106803.13
2023-04-12T13:44:11.102Z,106157.69
2023-04-12T13:46:39.015Z,105505.41
2023-04-12T13:49:07.194Z,104765.25
2023-04-12T13:51:36.614Z,104777.59
2023-04-12T13:54:04.514Z,104998.00
2023-04-12T13:56:32.472Z,104504.81
2023-04-12T13:59:00.741Z,104439.69
2023-04-12T14:01:28.637Z,104474.38
2023-04-12T14:03:57.139Z,104282.09
2023-04-12T14:06:25.192Z,104053.53
2023-04-12T14:08:54.629Z,104293.53
2023-04-12T14:11:24.872Z,104794.19
2023-04-12T14:13:52.894Z,104978.94
2023-04-12T14:16:21.162Z,105277.44
2023-04-12T14:18:49.352Z,104986.03
2023-04-12T14:21:17.842Z,104308.00
2023-04-12T14:23:45.829Z,104148.38
2023-04-12T14:26:17.170Z,103873.91
2023-04-12T14:28:45.058Z,103400.47
2023-04-12T14:31:14.970Z,102859.88
2023-04-12T14:33:43.183Z,102550.75
2023-04-12T14:36:13.047Z,102538.50
2023-04-12T14:38:42.057Z,102443.25
2023-04-12T14:41:13.995Z,102321.78
2023-04-12T14:43:45.842Z,102318.16
2023-04-12T14:46:14.219Z,102920.94
2023-04-12T14:48:42.526Z,103663.22
2023-04-12T14:51:10.470Z,104262.69
2023-04-12T14:53:38.436Z,104396.25
2023-04-12T14:56:17.106Z,104480.69
2023-04-12T14:58:46.474Z,104406.91
2023-04-12T15:01:14.436Z,104568.84
2023-04-12T15:03:42.864Z,104610.88
2023-04-12T15:06:11.231Z,104320.47
2023-04-12T15:08:43.009Z,103965.91
2023-04-12T15:11:11.902Z,103159.50
2023-04-12T15:13:44.379Z,102503.72
2023-04-12T15:16:15.065Z,102293.25
2023-04-12T15:18:42.978Z,102143.06
2023-04-12T15:21:11.947Z,102060.34
2023-04-12T15:23:42.565Z,101878.72
2023-04-12T15:26:10.682Z,101659.38
2023-04-12T15:28:39.333Z,101456.38
2023-04-12T15:31:08.665Z,101301.09
2023-04-12T15:33:37.899Z,101211.06
2023-04-12T15:36:06.640Z,101185.66
2023-04-12T15:38:42.273Z,101159.47
2023-04-12T15:41:10.577Z,101100.19
2023-04-12T15:43:38.653Z,100998.63
2023-04-12T15:46:07.274Z,100910.47
2023-04-12T15:48:38.723Z,100885.00
2023-04-12T15:51:08.413Z,100954.81
2023-04-12T15:53:36.314Z,101105.06
2023-04-12T15:56:04.511Z,101305.34
2023-04-12T15:58:32.502Z,101423.34
2023-04-12T16:01:00.431Z,101445.25
2023-04-12T16:03:28.927Z,101403.16
2023-04-12T16:05:58.241Z,101386.56
2023-04-12T16:08:28.935Z,101284.22
2023-04-12T16:10:56.896Z,101347.88
2023-04-12T16:13:24.860Z,101402.19
2023-04-12T16:15:55.860Z,101362.94
2023-04-12T16:18:31.405Z,101173.69
2023-04-12T16:20:59.885Z,101032.41
2023-04-12T16:23:29.587Z,100890.09
2023-04-12T16:25:59.884Z,100717.53
2023-04-12T16:28:28.115Z,100675.69
2023-04-12T16:30:56.525Z,100590.25
2023-04-12T16:33:24.441Z,100585.88
2023-04-12T16:35:52.250Z,100564.19
2023-04-12T16:38:20.109Z,100529.19
2023-04-12T16:40:49.384Z,100521.44
2023-04-12T16:43:17.748Z,100579.81
2023-04-12T16:45:49.303Z,100583.97
2023-04-12T16:48:17.413Z,100612.81
2023-04-12T16:50:47.419Z,100568.41
2023-04-12T16:53:16.415Z,100534.41
2023-04-12T16:55:47.222Z,100477.84
2023-04-12T16:58:17.049Z,100443.63
2023-04-12T17:00:45.470Z,100463.81
2023-04-12T17:03:14.116Z,100380.50
2023-04-12T17:05:42.373Z,100330.50
2023-04-12T17:08:10.544Z,100278.38
2023-04-12T17:10:38.525Z,100230.69
2023-04-12T17:13:06.401Z,100152.38
2023-04-12T17:15:36.114Z,100102.03
2023-04-12T17:18:06.207Z,100048.16
2023-04-12T17:20:34.874Z,99992.59
2023-04-12T17:23:03.152Z,99957.81
2023-04-12T17:25:32.074Z,99944.06
2023-04-12T17:28:00.611Z,99885.13
2023-04-12T17:30:28.506Z,99878.13
2023-04-12T17:33:01.001Z,99863.41
2023-04-12T17:35:30.092Z,99823.50
2023-04-12T17:37:58.123Z,99784.03
2023-04-12T17:40:26.145Z,99773.03
2023-04-12T17:42:54.112Z,99743.50
2023-04-12T17:45:23.647Z,99718.69
2023-04-12T17:47:51.665Z,99660.56
2023-04-12T17:50:20.937Z,99632.00
2023-04-12T17:52:48.991Z,99605.97
2023-04-12T17:55:19.490Z,99582.47
2023-04-12T17:57:47.357Z,99514.88
2023-04-12T18:00:18.998Z,99480.47
2023-04-12T18:02:47.679Z,99436.59
2023-04-12T18:05:16.169Z,99404.34
2023-04-12T18:07:45.372Z,99384.47
2023-04-12T18:10:15.777Z,99333.31
2023-04-12T18:12:45.064Z,99297.84
2023-04-12T18:15:13.011Z,99294.47
2023-04-12T18:17:41.391Z,99268.50
2023-04-12T18:20:11.417Z,99245.31
2023-04-12T18:22:40.006Z,99220.28
2023-04-12T18:25:11.742Z,99190.84
2023-04-12T18:27:39.751Z,99164.66
2023-04-12T18:30:09.470Z,99184.13
2023-04-12T18:32:37.555Z,99174.25
2023-04-12T18:35:05.945Z,99176.88
2023-04-12T18:37:33.818Z,99190.84
2023-04-12T18:40:02.036Z,99176.88
2023-04-12T18:42:31.251Z,99138.09
2023-04-12T18:44:59.088Z,99132.19
2023-04-12T18:47:27.515Z,99120.16
2023-04-12T18:49:56.484Z,99099.38
2023-04-12T18:52:24.529Z,99116.56
2023-04-12T18:54:52.357Z,99096.59
2023-04-12T18:57:20.121Z,99110.41
2023-04-12T18:59:49.719Z,99104.28
2023-04-12T19:02:18.294Z,99069.94
2023-04-12T19:04:46.217Z,99035.94
2023-04-12T19:07:14.714Z,99065.50
2023-04-12T19:09:42.466Z,99014.22
2023-04-12T19:12:10.339Z,99021.44
2023-04-12T19:14:38.879Z,99009.44
2023-04-12T19:17:08.369Z,98969.91
2023-04-12T19:19:36.265Z,98960.31
2023-04-12T19:22:04.191Z,98939.53
2023-04-12T19:24:32.544Z,98930.06
2023-04-12T19:27:01.387Z,98918.19
2023-04-12T19:29:29.399Z,98906.66
2023-04-12T19:31:58.156Z,98906.91
2023-04-12T19:34:27.539Z,98901.75
2023-04-12T19:36:55.676Z,98875.81
2023-04-12T19:39:24.000Z,98856.88
2023-04-12T19:41:52.572Z,98859.38
2023-04-12T19:44:20.611Z,98860.47
2023-04-12T19:46:48.470Z,98867.31
2023-04-12T19:49:16.264Z,98868.00
2023-04-12T19:51:46.206Z,98866.47
2023-04-12T19:54:14.147Z,98859.50
2023-04-12T19:56:42.647Z,98856.88
2023-04-12T19:59:10.876Z,98846.56
2023-04-12T20:01:47.894Z,98857.00
2023-04-12T20:04:16.705Z,98830.13
2023-04-12T20:06:46.142Z,98856.03
2023-04-12T20:09:14.863Z,98873.31
2023-04-12T20:11:42.861Z,98892.25
2023-04-12T20:14:10.712Z,98888.78
2023-04-12T20:16:42.707Z,98883.63
2023-04-12T20:19:11.202Z,98891.41
2023-04-12T20:21:39.387Z,98906.22
2023-04-12T20:24:09.365Z,98919.88
2023-04-12T20:26:37.459Z,98926.84
2023-04-12T20:29:05.412Z,98943.28
2023-04-12T20:31:33.699Z,98965.59
2023-04-12T20:34:01.602Z,98987.91
2023-04-12T20:36:29.790Z,99039.81
2023-04-12T20:38:58.114Z,99019.41
2023-04-12T20:41:28.066Z,99069.94
2023-04-12T20:43:55.962Z,99087.25
2023-04-12T20:46:25.948Z,99112.34
2023-04-12T20:48:56.244Z,99143.38
2023-04-12T20:51:24.845Z,99175.22
2023-04-12T20:53:52.983Z,99192.75
2023-04-12T20:56:20.894Z,99175.47
2023-04-12T20:58:50.207Z,99180.75
2023-04-12T21:01:18.792Z,99181.59
2023-04-12T21:03:47.474Z,99173.78
2023-04-12T21:06:15.818Z,99170.41
2023-04-12T21:08:44.667Z,99164.28
2023-04-12T21:11:12.501Z,99152.16
2023-04-12T21:13:40.716Z,99133.16
2023-04-12T21:16:14.574Z,99127.03
2023-04-12T21:18:42.790Z,99126.28
2023-04-12T21:21:10.665Z,99117.06
2023-04-12T21:23:38.688Z,99122.69
2023-04-12T21:26:07.162Z,99113.44
2023-04-12T21:28:35.099Z,99115.84
2023-04-12T21:31:04.193Z,99148.91
2023-04-12T21:33:34.788Z,99137.50
2023-04-12T21:36:02.886Z,99127.13
2023-04-12T21:38:31.348Z,99129.78
2023-04-12T21:41:06.186Z,99136.66
2023-04-12T21:43:34.402Z,99111.50
2023-04-12T21:46:02.275Z,99129.06
2023-04-12T21:48:30.668Z,99116.94
2023-04-12T21:50:59.813Z,99116.81
2023-04-12T21:53:28.486Z,99085.81
2023-04-12T21:55:56.379Z,99052.91
2023-04-12T21:58:24.356Z,99013.13
2023-04-12T22:00:52.551Z,99071.88
2023-04-12T22:03:20.531Z,99069.50
2023-04-12T22:06:00.840Z,99025.28
2023-04-12T22:08:34.274Z,98993.47
2023-04-12T22:11:02.353Z,98976.19
2023-04-12T22:13:30.831Z,98951.94
2023-04-12T22:16:00.829Z,98939.94
2023-04-12T22:18:28.694Z,98926.00
2023-04-12T22:20:57.814Z,98927.09
2023-04-12T22:23:25.744Z,98927.09
2023-04-12T22:25:58.639Z,98937.41
2023-04-12T22:28:26.445Z,98934.06
2023-04-12T22:30:57.146Z,98919.53
2023-04-12T22:33:25.286Z,98926.97
2023-04-12T22:35:53.066Z,98922.66
2023-04-12T22:38:21.058Z,98936.56
2023-04-12T22:40:48.879Z,98947.72
2023-04-12T22:43:22.313Z,98976.31
2023-04-12T22:45:53.947Z,98939.34
2023-04-12T22:48:24.992Z,98944.38
2023-04-12T22:50:54.563Z,98970.31
2023-04-12T22:53:22.690Z,98977.97
2023-04-12T22:55:50.522Z,98992.88
2023-04-12T22:58:19.692Z,99001.53
2023-04-12T23:00:49.354Z,99002.34
2023-04-12T23:03:17.791Z,98989.53
2023-04-12T23:05:45.905Z,98960.13
2023-04-12T23:08:14.993Z,98927.34
2023-04-12T23:10:43.260Z,98907.41
2023-04-12T23:13:12.202Z,98869.03
2023-04-12T23:15:42.759Z,98841.91
2023-04-12T23:18:10.963Z,98838.56
2023-04-12T23:20:40.305Z,98832.56
2023-04-12T23:23:08.384Z,98809.28
2023-04-12T23:25:39.942Z,98893.88
2023-04-12T23:28:13.028Z,98948.00
2023-04-12T23:30:44.139Z,98926.47
2023-04-12T23:33:12.715Z,98875.75
2023-04-12T23:35:42.495Z,98845.41
2023-04-12T23:38:15.479Z,98837.84
2023-04-12T23:40:44.203Z,98923.13
2023-04-12T23:43:12.268Z,98900.81
2023-04-12T23:45:40.152Z,98875.75
2023-04-12T23:48:09.486Z,98867.13
2023-04-12T23:50:37.730Z,98855.13
2023-04-12T23:53:06.078Z,98932.63
2023-04-12T23:55:34.126Z,98962.88
2023-04-12T23:58:02.277Z,98907.66
